createdAt,value
2023-02-04T00:02:18.710Z,24.08
2023-02-04T00:04:50.621Z,27.30
2023-02-04T00:07:22.527Z,30.73
2023-02-04T00:09:54.413Z,26.73
2023-02-04T00:12:26.336Z,25.75
2023-02-04T00:14:58.276Z,23.58
2023-02-04T00:17:30.240Z,23.98
2023-02-04T00:20:02.132Z,24.33
2023-02-04T00:22:33.972Z,25.35
2023-02-04T00:25:07.301Z,24.27
2023-02-04T00:27:39.210Z,24.95
2023-02-04T00:30:11.905Z,25.95
2023-02-04T00:32:45.745Z,25.75
2023-02-04T00:35:17.596Z,27.27
2023-02-04T00:37:50.750Z,29.60
2023-02-04T00:40:22.887Z,29.50
2023-02-04T00:42:54.773Z,30.05
2023-02-04T00:45:26.605Z,31.63
2023-02-04T00:47:58.560Z,30.73
2023-02-04T00:50:30.648Z,30.13
2023-02-04T00:53:02.613Z,28.38
2023-02-04T00:55:35.101Z,27.63
2023-02-04T00:58:07.125Z,27.75
2023-02-04T01:00:39.035Z,26.73
2023-02-04T01:03:12.283Z,27.98
2023-02-04T01:05:44.241Z,27.13
2023-02-04T01:08:17.164Z,28.88
2023-02-04T01:10:49.168Z,27.40
2023-02-04T01:13:21.019Z,28.83
2023-02-04T01:15:52.861Z,29.95
2023-02-04T01:18:24.781Z,29.17
2023-02-04T01:20:56.584Z,30.33
2023-02-04T01:23:28.533Z,30.08
2023-02-04T01:26:00.410Z,32.53
2023-02-04T01:28:32.329Z,32.72
2023-02-04T01:31:04.293Z,32.00
2023-02-04T01:33:36.190Z,30.58
2023-02-04T01:36:08.920Z,29.95
2023-02-04T01:38:40.759Z,29.30
2023-02-04T01:41:12.611Z,29.92
2023-02-04T01:43:45.641Z,31.05
2023-02-04T01:46:17.814Z,29.48
2023-02-04T01:48:51.543Z,30.42
2023-02-04T01:51:31.954Z,31.70
2023-02-04T01:54:04.143Z,32.97
2023-02-04T01:56:36.946Z,33.58
2023-02-04T01:59:14.426Z,34.45
2023-02-04T02:01:48.992Z,35.63
2023-02-04T02:04:33.557Z,34.95
2023-02-04T02:07:07.257Z,35.63
2023-02-04T02:09:39.175Z,34.15
2023-02-04T02:12:11.601Z,35.42
2023-02-04T02:14:43.408Z,35.40
2023-02-04T02:17:15.268Z,36.45
2023-02-04T02:19:47.164Z,37.45
2023-02-04T02:22:54.657Z,37.28
2023-02-04T02:25:26.505Z,37.15
2023-02-04T02:28:00.438Z,37.38
2023-02-04T02:30:32.924Z,36.58
2023-02-04T02:33:06.322Z,36.17
2023-02-04T02:35:38.298Z,36.53
2023-02-04T02:38:13.139Z,38.17
2023-02-04T02:40:47.895Z,35.80
2023-02-04T02:43:25.735Z,36.20
2023-02-04T02:46:00.139Z,35.25
2023-02-04T02:48:32.203Z,37.35
2023-02-04T02:51:04.492Z,37.88
2023-02-04T02:53:36.805Z,38.50
2023-02-04T02:56:09.903Z,38.85
2023-02-04T02:58:42.169Z,40.38
2023-02-04T03:01:14.479Z,39.80
2023-02-04T03:03:49.962Z,41.72
2023-02-04T03:06:26.002Z,40.10
2023-02-04T03:08:58.298Z,39.95
2023-02-04T03:11:30.317Z,40.67
2023-02-04T03:14:03.084Z,41.50
2023-02-04T03:16:37.971Z,42.08
2023-02-04T03:19:10.681Z,41.28
2023-02-04T03:21:43.220Z,41.30
2023-02-04T03:24:15.094Z,41.15
2023-02-04T03:26:47.035Z,40.83
2023-02-04T03:29:19.056Z,41.00
2023-02-04T03:31:51.098Z,39.83
2023-02-04T03:34:23.388Z,40.90
2023-02-04T03:36:55.281Z,38.30
2023-02-04T03:39:27.128Z,38.67
2023-02-04T03:41:59.403Z,39.22
2023-02-04T03:44:31.222Z,37.50
2023-02-04T03:47:03.085Z,39.08
2023-02-04T03:49:36.155Z,43.75
2023-02-04T03:52:08.021Z,42.92
2023-02-04T03:54:39.910Z,42.40
2023-02-04T03:57:11.957Z,39.97
2023-02-04T03:59:44.224Z,38.72
2023-02-04T04:02:16.103Z,40.00
2023-02-04T04:04:48.013Z,39.40
2023-02-04T04:07:25.997Z,41.58
2023-02-04T04:09:57.877Z,39.33
2023-02-04T04:12:29.721Z,40.33
2023-02-04T04:15:01.660Z,41.45
2023-02-04T04:17:34.203Z,41.70
2023-02-04T04:20:06.493Z,42.97
2023-02-04T04:22:38.674Z,41.33
2023-02-04T04:25:10.512Z,42.10
2023-02-04T04:27:42.358Z,41.28
2023-02-04T04:30:14.248Z,40.00
2023-02-04T04:32:46.243Z,39.25
2023-02-04T04:35:18.093Z,38.85
2023-02-04T04:37:49.999Z,39.10
2023-02-04T04:40:21.895Z,38.65
2023-02-04T04:42:54.684Z,39.75
2023-02-04T04:45:26.752Z,41.83
2023-02-04T04:47:58.748Z,39.75
2023-02-04T04:50:30.994Z,40.10
2023-02-04T04:53:03.093Z,40.65
2023-02-04T04:55:34.962Z,41.03
2023-02-04T04:58:08.283Z,41.88
2023-02-04T05:00:40.204Z,43.10
2023-02-04T05:03:12.094Z,40.55
2023-02-04T05:05:44.385Z,41.17
2023-02-04T05:08:17.055Z,39.97
2023-02-04T05:10:49.038Z,39.97
2023-02-04T05:13:20.956Z,39.08
2023-02-04T05:15:52.805Z,40.63
2023-02-04T05:18:24.775Z,39.53
2023-02-04T05:20:56.570Z,40.35
2023-02-04T05:23:28.522Z,40.53
2023-02-04T05:26:00.677Z,39.65
2023-02-04T05:28:32.580Z,38.83
2023-02-04T05:31:04.598Z,39.33
2023-02-04T05:33:36.636Z,38.38
2023-02-04T05:36:08.450Z,42.17
2023-02-04T05:38:40.349Z,43.65
2023-02-04T05:41:12.704Z,49.08
2023-02-04T05:43:44.600Z,46.17
2023-02-04T05:46:16.460Z,41.70
2023-02-04T05:48:48.260Z,42.13
2023-02-04T05:51:20.151Z,42.05
2023-02-04T05:53:52.036Z,43.00
2023-02-04T05:56:25.326Z,40.38
2023-02-04T05:58:57.174Z,44.00
2023-02-04T06:01:29.080Z,46.20
2023-02-04T06:04:00.924Z,43.22
2023-02-04T06:06:32.970Z,48.97
2023-02-04T06:09:04.972Z,49.70
2023-02-04T06:11:36.976Z,49.65
2023-02-04T06:14:09.008Z,51.15
2023-02-04T06:16:41.004Z,50.05
2023-02-04T06:19:14.095Z,48.90
2023-02-04T06:21:45.919Z,48.33
2023-02-04T06:24:17.836Z,46.58
2023-02-04T06:26:50.206Z,48.80
2023-02-04T06:29:22.181Z,47.70
2023-02-04T06:31:54.180Z,49.13
2023-02-04T06:34:26.102Z,50.35
2023-02-04T06:36:57.944Z,50.20
2023-02-04T06:39:29.786Z,49.88
2023-02-04T06:42:02.414Z,61.75
2023-02-04T06:44:34.308Z,51.22
2023-02-04T06:47:06.136Z,52.28
2023-02-04T06:49:38.220Z,53.08
2023-02-04T06:52:10.229Z,52.42
2023-02-04T06:54:42.151Z,52.10
2023-02-04T06:57:14.007Z,53.53
2023-02-04T06:59:47.208Z,54.20
2023-02-04T07:02:19.184Z,55.30
2023-02-04T07:04:51.092Z,55.70
2023-02-04T07:07:23.100Z,52.75
2023-02-04T07:09:54.931Z,63.55
2023-02-04T07:12:27.019Z,56.28
2023-02-04T07:14:58.852Z,62.45
2023-02-04T07:17:30.777Z,59.08
2023-02-04T07:20:02.710Z,50.30
2023-02-04T07:22:34.581Z,50.17
2023-02-04T07:25:07.038Z,48.95
2023-02-04T07:27:38.928Z,47.78
2023-02-04T07:30:11.647Z,49.78
2023-02-04T07:32:43.686Z,51.58
2023-02-04T07:35:15.708Z,75.65
2023-02-04T07:37:47.529Z,78.40
2023-02-04T07:40:22.723Z,54.05
2023-02-04T07:42:54.608Z,54.55
2023-02-04T07:45:28.242Z,54.53
2023-02-04T07:48:05.935Z,54.67
2023-02-04T07:50:37.909Z,52.40
2023-02-04T07:53:09.792Z,52.80
2023-02-04T07:55:41.614Z,55.17
2023-02-04T07:58:13.581Z,57.47
2023-02-04T08:00:45.565Z,52.97
2023-02-04T08:03:18.115Z,55.70
2023-02-04T08:05:50.313Z,60.30
2023-02-04T08:08:22.424Z,59.85
2023-02-04T08:10:54.323Z,67.10
2023-02-04T08:13:26.213Z,58.20
2023-02-04T08:15:58.118Z,55.00
2023-02-04T08:18:30.563Z,53.78
2023-02-04T08:21:04.769Z,56.08
2023-02-04T08:23:41.692Z,54.83
2023-02-04T08:26:13.679Z,55.30
2023-02-04T08:28:45.583Z,53.30
2023-02-04T08:31:17.603Z,56.08
2023-02-04T08:33:51.791Z,58.50
2023-02-04T08:36:23.773Z,54.53
2023-02-04T08:38:55.633Z,55.45
2023-02-04T08:41:27.600Z,53.22
2023-02-04T08:44:01.070Z,54.20
2023-02-04T08:46:33.126Z,53.00
2023-02-04T08:49:05.080Z,54.90
2023-02-04T08:51:37.005Z,54.92
2023-02-04T08:54:10.026Z,55.80
2023-02-04T08:56:41.945Z,55.90
2023-02-04T08:59:13.963Z,56.05
2023-02-04T09:01:51.009Z,58.13
2023-02-04T09:04:24.137Z,55.63
2023-02-04T09:06:56.327Z,56.38
2023-02-04T09:09:28.161Z,56.47
2023-02-04T09:12:01.775Z,58.30
2023-02-04T09:14:33.683Z,57.35
2023-02-04T09:17:05.921Z,59.80
2023-02-04T09:19:37.826Z,59.45
2023-02-04T09:22:09.888Z,58.17
2023-02-04T09:24:42.056Z,59.55
2023-02-04T09:27:14.003Z,58.15
2023-02-04T09:29:45.978Z,58.75
2023-02-04T09:32:17.961Z,59.75
2023-02-04T09:34:50.065Z,63.47
2023-02-04T09:37:22.072Z,65.22
2023-02-04T09:39:54.846Z,64.85
2023-02-04T09:42:27.386Z,66.82
2023-02-04T09:45:01.459Z,67.78
2023-02-04T09:47:33.347Z,66.80
2023-02-04T09:50:05.473Z,66.70
2023-02-04T09:52:37.312Z,66.57
2023-02-04T09:55:21.056Z,68.28
2023-02-04T09:57:52.947Z,67.07
2023-02-04T10:00:27.814Z,66.00
2023-02-04T10:03:02.612Z,70.05
2023-02-04T10:05:37.248Z,69.68
2023-02-04T10:08:24.837Z,67.70
2023-02-04T10:10:58.125Z,67.78
2023-02-04T10:13:40.330Z,70.13
2023-02-04T10:16:21.511Z,68.32
2023-02-04T10:18:53.380Z,70.38
2023-02-04T10:21:28.714Z,68.07
2023-02-04T10:24:10.289Z,68.55
2023-02-04T10:26:42.562Z,66.82
2023-02-04T10:29:30.559Z,69.07
2023-02-04T10:32:02.591Z,67.93
2023-02-04T10:34:39.645Z,71.18
2023-02-04T10:37:20.661Z,69.53
2023-02-04T10:39:52.642Z,73.85
2023-02-04T10:42:29.854Z,69.70
2023-02-04T10:45:01.917Z,73.85
2023-02-04T10:47:37.264Z,72.70
2023-02-04T10:50:27.212Z,71.30
2023-02-04T10:53:19.175Z,72.10
2023-02-04T10:55:53.389Z,71.80
2023-02-04T10:58:28.636Z,73.90
2023-02-04T11:01:01.144Z,77.10
2023-02-04T11:03:33.084Z,78.53
2023-02-04T11:06:15.917Z,77.60
2023-02-04T11:08:50.173Z,79.63
2023-02-04T11:11:27.312Z,79.47
2023-02-04T11:14:04.295Z,80.90
2023-02-04T11:16:48.980Z,77.55
2023-02-04T11:19:38.778Z,81.22
2023-02-04T11:22:46.627Z,82.55
2023-02-04T11:25:38.165Z,83.70
2023-02-04T11:28:25.491Z,82.80
2023-02-04T11:31:02.476Z,84.28
2023-02-04T11:34:25.352Z,85.47
2023-02-04T11:37:05.969Z,81.72
2023-02-04T11:39:49.717Z,85.10
2023-02-04T11:42:48.385Z,83.88
2023-02-04T11:45:32.303Z,85.38
2023-02-04T11:48:18.532Z,84.80
2023-02-04T11:51:02.098Z,88.68
2023-02-04T11:53:34.917Z,88.55
2023-02-04T11:56:30.156Z,89.15
2023-02-04T11:59:02.126Z,84.18
2023-02-04T12:01:34.717Z,86.30
2023-02-04T12:04:21.136Z,86.72
2023-02-04T12:07:01.901Z,88.97
2023-02-04T12:09:33.968Z,89.95
2023-02-04T12:12:06.596Z,90.18
2023-02-04T12:14:38.981Z,88.25
2023-02-04T12:17:18.976Z,88.20
2023-02-04T12:19:50.876Z,92.55
2023-02-04T12:22:22.793Z,90.40
2023-02-04T12:24:54.749Z,86.35
2023-02-04T12:27:26.661Z,84.65
2023-02-04T12:29:58.657Z,87.55
2023-02-04T12:32:30.605Z,86.20
2023-02-04T12:35:02.678Z,78.35
2023-02-04T12:37:34.605Z,81.97
2023-02-04T12:40:07.993Z,84.80
2023-02-04T12:42:40.165Z,81.45
2023-02-04T12:45:13.948Z,80.95
2023-02-04T12:47:46.426Z,80.32
2023-02-04T12:50:26.243Z,82.68
2023-02-04T12:52:59.557Z,77.65
2023-02-04T12:55:31.913Z,79.68
2023-02-04T12:58:04.688Z,95.03
2023-02-04T13:00:36.671Z,77.90
2023-02-04T13:03:08.729Z,77.47
2023-02-04T13:05:40.957Z,79.35
2023-02-04T13:08:12.956Z,76.93
2023-02-04T13:10:51.974Z,79.60
2023-02-04T13:13:24.225Z,81.65
2023-02-04T13:15:56.330Z,77.28
2023-02-04T13:18:28.760Z,76.68
2023-02-04T13:21:00.713Z,76.35
2023-02-04T13:23:32.779Z,75.65
2023-02-04T13:26:04.779Z,75.78
2023-02-04T13:28:37.036Z,77.93
2023-02-04T13:31:08.995Z,77.15
2023-02-04T13:33:40.919Z,75.55
2023-02-04T13:36:14.300Z,76.78
2023-02-04T13:38:46.735Z,73.72
2023-02-04T13:41:18.673Z,75.97
2023-02-04T13:43:50.996Z,74.65
2023-02-04T13:46:22.962Z,74.53
2023-02-04T13:48:54.880Z,77.88
2023-02-04T13:51:27.028Z,74.82
2023-02-04T13:54:00.418Z,76.53
2023-02-04T13:56:38.476Z,74.03
2023-02-04T13:59:13.190Z,75.32
2023-02-04T14:01:45.198Z,72.15
2023-02-04T14:04:17.079Z,71.40
2023-02-04T14:06:49.028Z,70.63
2023-02-04T14:09:21.764Z,71.25
2023-02-04T14:11:53.639Z,71.38
2023-02-04T14:14:25.584Z,71.70
2023-02-04T14:16:57.498Z,72.05
2023-02-04T14:19:29.390Z,76.30
2023-02-04T14:22:01.648Z,72.57
2023-02-04T14:24:34.301Z,68.90
2023-02-04T14:27:07.781Z,68.30
2023-02-04T14:29:39.835Z,71.22
2023-02-04T14:32:11.713Z,73.60
2023-02-04T14:34:43.634Z,73.70
2023-02-04T14:37:15.525Z,69.13
2023-02-04T14:39:47.413Z,69.95
2023-02-04T14:42:19.308Z,68.75
2023-02-04T14:44:51.124Z,68.57
2023-02-04T14:47:23.314Z,68.78
2023-02-04T14:49:58.232Z,63.38
2023-02-04T14:52:30.180Z,60.38
2023-02-04T14:55:02.050Z,60.38
2023-02-04T14:57:33.919Z,59.35
2023-02-04T15:00:09.810Z,57.97
2023-02-04T15:02:42.751Z,59.60
2023-02-04T15:05:15.344Z,58.28
2023-02-04T15:07:47.286Z,59.83
2023-02-04T15:10:19.156Z,63.25
2023-02-04T15:12:51.823Z,64.55
2023-02-04T15:15:23.740Z,63.30
2023-02-04T15:17:55.605Z,63.78
2023-02-04T15:20:27.522Z,71.43
2023-02-04T15:23:00.884Z,73.68
2023-02-04T15:25:36.151Z,78.10
2023-02-04T15:28:09.770Z,83.78
2023-02-04T15:30:43.699Z,84.47
2023-02-04T15:33:16.803Z,84.53
2023-02-04T15:35:56.662Z,82.60
2023-02-04T15:38:28.522Z,87.85
2023-02-04T15:41:04.802Z,85.07
2023-02-04T15:43:36.934Z,87.03
2023-02-04T15:46:08.885Z,83.28
2023-02-04T15:48:40.899Z,92.35
2023-02-04T15:51:12.887Z,90.68
2023-02-04T15:53:44.789Z,92.38
2023-02-04T15:56:16.650Z,91.53
2023-02-04T15:58:48.632Z,95.10
2023-02-04T16:01:20.607Z,92.20
2023-02-04T16:03:56.428Z,94.15
2023-02-04T16:06:28.422Z,93.88
2023-02-04T16:09:00.419Z,96.32
2023-02-04T16:11:33.163Z,101.15
2023-02-04T16:14:04.966Z,93.85
2023-02-04T16:16:37.095Z,93.20
2023-02-04T16:19:09.462Z,95.57
2023-02-04T16:21:41.348Z,96.80
2023-02-04T16:24:13.234Z,92.95
2023-02-04T16:26:45.839Z,114.53
2023-02-04T16:29:17.704Z,105.25
2023-02-04T16:31:49.703Z,102.47
2023-02-04T16:34:21.641Z,101.80
2023-02-04T16:36:53.500Z,97.82
2023-02-04T16:39:25.450Z,99.20
2023-02-04T16:41:57.292Z,97.38
2023-02-04T16:44:29.842Z,96.38
2023-02-04T16:47:01.837Z,102.38
2023-02-04T16:49:34.616Z,102.28
2023-02-04T16:52:06.958Z,107.20
2023-02-04T16:54:38.847Z,102.65
2023-02-04T16:57:12.182Z,100.75
2023-02-04T16:59:44.220Z,96.40
2023-02-04T17:02:16.228Z,98.57
2023-02-04T17:04:48.435Z,99.97
2023-02-04T17:07:20.864Z,112.60
2023-02-04T17:09:54.781Z,105.15
2023-02-04T17:12:26.888Z,112.03
2023-02-04T17:14:58.880Z,106.78
2023-02-04T17:17:30.796Z,105.10
2023-02-04T17:20:02.740Z,107.63
2023-02-04T17:22:35.042Z,106.40
2023-02-04T17:25:07.253Z,103.82
2023-02-04T17:27:57.990Z,108.37
2023-02-04T17:30:30.662Z,106.97
2023-02-04T17:33:02.776Z,94.00
2023-02-04T17:35:35.060Z,76.63
2023-02-04T17:38:07.129Z,64.93
2023-02-04T17:40:39.193Z,51.03
2023-02-04T17:43:11.348Z,39.53
2023-02-04T17:45:43.360Z,39.63
2023-02-04T17:48:15.504Z,42.85
2023-02-04T17:50:47.518Z,39.28
2023-02-04T17:53:20.283Z,39.13
2023-02-04T17:55:52.322Z,41.05
2023-02-04T17:58:27.254Z,36.20
2023-02-04T18:00:59.695Z,39.03
2023-02-04T18:03:32.582Z,41.35
2023-02-04T18:06:28.987Z,37.88
2023-02-04T18:09:05.063Z,43.70
2023-02-04T18:11:39.347Z,39.38
2023-02-04T18:14:27.717Z,39.88
2023-02-04T18:17:00.774Z,37.70
2023-02-04T18:19:37.214Z,36.47
2023-02-04T18:22:16.712Z,48.55
2023-02-04T18:24:49.317Z,39.53
2023-02-04T18:27:24.683Z,33.97
2023-02-04T18:29:59.131Z,36.15
2023-02-04T18:32:39.161Z,36.75
2023-02-04T18:35:23.190Z,35.88
2023-02-04T18:37:55.001Z,32.92
2023-02-04T18:40:30.625Z,30.20
2023-02-04T18:43:21.579Z,27.88
2023-02-04T18:45:54.439Z,28.77
2023-02-04T18:48:26.319Z,29.15
2023-02-04T18:50:59.313Z,27.45
2023-02-04T18:53:31.214Z,25.63
2023-02-04T18:56:12.745Z,23.75
2023-02-04T19:01:27.881Z,24.35
2023-02-04T19:04:03.360Z,24.17
2023-02-04T19:06:40.797Z,24.73
2023-02-04T19:09:13.319Z,24.27
2023-02-04T19:11:56.953Z,24.90
2023-02-04T19:14:35.150Z,22.88
2023-02-04T19:17:26.148Z,23.55
2023-02-04T19:19:59.231Z,26.17
2023-02-04T19:22:49.731Z,30.15
2023-02-04T19:25:29.498Z,30.25
2023-02-04T19:28:11.813Z,25.05
2023-02-04T19:30:50.930Z,25.80
2023-02-04T19:33:28.011Z,25.48
2023-02-04T19:36:13.040Z,26.00
2023-02-04T19:38:48.014Z,23.42
2023-02-04T19:41:48.934Z,25.75
2023-02-04T19:44:35.904Z,26.60
2023-02-04T19:47:36.462Z,28.58
2023-02-04T19:50:14.372Z,27.70
2023-02-04T19:52:54.628Z,27.48
2023-02-04T19:55:31.191Z,28.77
2023-02-04T19:58:13.771Z,27.48
2023-02-04T20:00:54.657Z,27.45
2023-02-04T20:03:42.342Z,28.42
2023-02-04T20:06:32.943Z,29.10
2023-02-04T20:09:14.253Z,29.30
2023-02-04T20:12:05.841Z,30.37
2023-02-04T20:14:47.098Z,47.38
2023-02-04T20:17:39.177Z,33.08
2023-02-04T20:20:26.735Z,31.98
2023-02-04T20:23:02.506Z,30.27
2023-02-04T20:25:45.037Z,29.70
2023-02-04T20:28:23.190Z,31.17
2023-02-04T20:30:57.980Z,29.98
2023-02-04T20:33:41.737Z,29.88
2023-02-04T20:36:33.083Z,31.15
2023-02-04T20:39:23.644Z,29.98
2023-02-04T20:42:17.936Z,27.08
2023-02-04T20:44:50.088Z,28.88
2023-02-04T20:47:23.205Z,28.55
2023-02-04T20:49:57.611Z,27.27
2023-02-04T20:52:43.634Z,26.63
2023-02-04T20:55:31.776Z,26.55
2023-02-04T20:58:26.921Z,27.27
2023-02-04T21:00:58.783Z,26.05
2023-02-04T21:03:37.434Z,24.92
2023-02-04T21:06:31.601Z,27.25
2023-02-04T21:09:06.462Z,25.88
2023-02-04T21:11:38.329Z,25.55
2023-02-04T21:14:10.156Z,26.15
2023-02-04T21:16:42.111Z,25.55
2023-02-04T21:19:14.321Z,23.85
2023-02-04T21:21:46.323Z,22.83
2023-02-04T21:24:18.694Z,24.02
2023-02-04T21:26:50.562Z,25.40
2023-02-04T21:29:22.519Z,25.20
2023-02-04T21:31:54.745Z,23.77
2023-02-04T21:34:26.869Z,24.00
2023-02-04T21:36:58.841Z,23.58
2023-02-04T21:39:30.808Z,24.50
2023-02-04T21:42:11.484Z,23.67
2023-02-04T21:44:43.348Z,23.80
2023-02-04T21:47:17.244Z,23.58
2023-02-04T21:49:49.049Z,23.42
2023-02-04T21:52:20.963Z,23.63
2023-02-04T21:54:52.795Z,21.88
2023-02-04T21:57:24.670Z,21.73
2023-02-04T21:59:56.737Z,20.63
2023-02-04T22:02:28.615Z,21.92
2023-02-04T22:05:00.590Z,22.67
2023-02-04T22:07:32.871Z,23.33
2023-02-04T22:10:07.016Z,21.23
2023-02-04T22:12:38.933Z,21.20
2023-02-04T22:15:10.826Z,21.77
2023-02-04T22:17:42.903Z,20.70
2023-02-04T22:20:15.720Z,21.45
2023-02-04T22:22:48.864Z,21.15
2023-02-04T22:25:21.470Z,20.48
2023-02-04T22:27:53.402Z,20.33
2023-02-04T22:30:25.356Z,19.13
2023-02-04T22:33:00.141Z,19.80
2023-02-04T22:35:35.305Z,19.50
2023-02-04T22:38:07.386Z,20.33
2023-02-04T22:40:39.256Z,21.10
2023-02-04T22:43:11.127Z,20.63
2023-02-04T22:45:42.955Z,20.50
2023-02-04T22:48:14.960Z,20.17
2023-02-04T22:50:46.792Z,20.83
2023-02-04T22:53:18.653Z,19.70
2023-02-04T22:55:50.456Z,19.73
2023-02-04T22:58:22.442Z,20.98
2023-02-04T23:00:54.377Z,21.40
2023-02-04T23:03:26.245Z,21.55
2023-02-04T23:05:58.072Z,20.58
2023-02-04T23:08:29.902Z,21.10
2023-02-04T23:11:01.959Z,19.42
2023-02-04T23:13:34.035Z,20.17
2023-02-04T23:16:06.375Z,17.92
2023-02-04T23:18:38.213Z,19.90
2023-02-04T23:21:10.338Z,19.95
2023-02-04T23:23:42.614Z,19.83
2023-02-04T23:26:15.114Z,23.83
2023-02-04T23:28:47.077Z,18.08
2023-02-04T23:31:19.191Z,18.42
2023-02-04T23:33:51.095Z,18.58
2023-02-04T23:36:23.023Z,18.40
2023-02-04T23:38:54.867Z,18.70
2023-02-04T23:41:26.710Z,17.75
2023-02-04T23:43:58.532Z,18.95
2023-02-04T23:46:30.438Z,22.52
2023-02-04T23:49:02.319Z,18.85
2023-02-04T23:51:34.347Z,17.00
2023-02-04T23:54:07.208Z,15.93
2023-02-04T23:56:39.234Z,16.35
2023-02-04T23:59:11.200Z,16.27
